sensor_id;sensor_type;location;lat;lon;timestamp;P1;durP1;ratioP1;P2;durP2;ratioP2
5333;SDS011;2689;50.954;7.116;2023-05-20T19:48:36;9.37;;;7.23;;
5333;SDS011;2689;50.954;7.116;2023-05-20T19:51:03;7.97;;;6.77;;
5333;SDS011;2689;50.954;7.116;2023-05-20T19:53:31;8.63;;;6.50;;
5333;SDS011;2689;50.954;7.116;2023-05-20T19:55:57;11.20;;;6.80;;
5333;SDS011;2689;50.954;7.116;2023-05-20T19:58:24;10.10;;;6.70;;
5333;SDS011;2689;50.954;7.116;2023-05-20T20:00:51;11.17;;;7.10;;
5333;SDS011;2689;50.954;7.116;2023-05-20T20:03:17;8.50;;;6.93;;
5333;SDS011;2689;50.954;7.116;2023-05-20T20:05:46;11.17;;;7.53;;
5333;SDS011;2689;50.954;7.116;2023-05-20T20:08:12;8.23;;;6.80;;
5333;SDS011;2689;50.954;7.116;2023-05-20T20:10:39;7.60;;;6.63;;
5333;SDS011;2689;50.954;7.116;2023-05-20T20:13:06;7.30;;;6.60;;
5333;SDS011;2689;50.954;7.116;2023-05-20T20:15:32;7.50;;;6.70;;
5333;SDS011;2689;50.954;7.116;2023-05-20T20:18:00;7.43;;;6.57;;
5333;SDS011;2689;50.954;7.116;2023-05-20T20:20:28;7.83;;;6.57;;
5333;SDS011;2689;50.954;7.116;2023-05-20T20:23:03;10.33;;;6.97;;
5333;SDS011;2689;50.954;7.116;2023-05-20T20:25:29;9.60;;;6.90;;
5333;SDS011;2689;50.954;7.116;2023-05-20T20:27:57;8.30;;;6.90;;
5333;SDS011;2689;50.954;7.116;2023-05-20T20:30:24;8.27;;;7.47;;
5333;SDS011;2689;50.954;7.116;2023-05-20T20:32:51;8.90;;;6.60;;
5333;SDS011;2689;50.954;7.116;2023-05-20T20:35:18;8.47;;;7.07;;
5333;SDS011;2689;50.954;7.116;2023-05-20T20:37:46;10.97;;;7.53;;
5333;SDS011;2689;50.954;7.116;2023-05-20T20:40:15;10.50;;;7.80;;
5333;SDS011;2689;50.954;7.116;2023-05-20T20:42:41;10.07;;;7.70;;
5333;SDS011;2689;50.954;7.116;2023-05-20T20:45:12;8.80;;;7.30;;
5333;SDS011;2689;50.954;7.116;2023-05-20T20:47:39;10.83;;;6.97;;
5333;SDS011;2689;50.954;7.116;2023-05-20T20:50:08;8.13;;;6.47;;
5333;SDS011;2689;50.954;7.116;2023-05-20T20:52:37;8.80;;;7.33;;
5333;SDS011;2689;50.954;7.116;2023-05-20T20:55:07;9.40;;;8.03;;
5333;SDS011;2689;50.954;7.116;2023-05-20T20:57:36;9.13;;;6.60;;
5333;SDS011;2689;50.954;7.116;2023-05-20T21:00:03;8.37;;;7.03;;
5333;SDS011;2689;50.954;7.116;2023-05-20T21:02:39;7.70;;;6.60;;
5333;SDS011;2689;50.954;7.116;2023-05-20T21:05:07;7.80;;;7.00;;
5333;SDS011;2689;50.954;7.116;2023-05-20T21:07:34;11.10;;;7.33;;
5333;SDS011;2689;50.954;7.116;2023-05-20T21:10:03;8.77;;;7.20;;
5333;SDS011;2689;50.954;7.116;2023-05-20T21:12:31;8.30;;;6.90;;
5333;SDS011;2689;50.954;7.116;2023-05-20T21:14:59;11.40;;;7.27;;
5333;SDS011;2689;50.954;7.116;2023-05-20T21:17:26;11.43;;;7.80;;
5333;SDS011;2689;50.954;7.116;2023-05-20T21:19:53;8.77;;;7.30;;
5333;SDS011;2689;50.954;7.116;2023-05-20T21:22:19;8.57;;;7.57;;
5333;SDS011;2689;50.954;7.116;2023-05-20T21:24:47;8.90;;;8.00;;
5333;SDS011;2689;50.954;7.116;2023-05-20T21:27:13;8.83;;;7.93;;
5333;SDS011;2689;50.954;7.116;2023-05-20T21:29:40;10.73;;;8.33;;
5333;SDS011;2689;50.954;7.116;2023-05-20T21:32:08;11.83;;;8.27;;
5333;SDS011;2689;50.954;7.116;2023-05-20T21:34:35;12.90;;;8.17;;
5333;SDS011;2689;50.954;7.116;2023-05-20T21:37:02;9.57;;;8.20;;
5333;SDS011;2689;50.954;7.116;2023-05-20T21:39:28;12.90;;;8.17;;
5333;SDS011;2689;50.954;7.116;2023-05-20T21:41:55;13.50;;;10.03;;
5333;SDS011;2689;50.954;7.116;2023-05-20T21:44:22;11.33;;;8.40;;
5333;SDS011;2689;50.954;7.116;2023-05-20T21:46:49;11.43;;;8.43;;
5333;SDS011;2689;50.954;7.116;2023-05-20T21:49:17;10.20;;;8.23;;
5333;SDS011;2689;50.954;7.116;2023-05-20T21:51:43;10.73;;;8.60;;
5333;SDS011;2689;50.954;7.116;2023-05-20T21:54:10;8.60;;;7.70;;
5333;SDS011;2689;50.954;7.116;2023-05-20T21:56:37;9.23;;;7.93;;
5333;SDS011;2689;50.954;7.116;2023-05-20T21:59:04;12.17;;;8.17;;
5333;SDS011;2689;50.954;7.116;2023-05-20T22:01:30;11.07;;;8.03;;
5333;SDS011;2689;50.954;7.116;2023-05-20T22:03:57;8.93;;;8.03;;
5333;SDS011;2689;50.954;7.116;2023-05-20T22:06:25;12.40;;;8.23;;
5333;SDS011;2689;50.954;7.116;2023-05-20T22:08:53;10.27;;;8.33;;
5333;SDS011;2689;50.954;7.116;2023-05-20T22:11:20;11.20;;;8.50;;
5333;SDS011;2689;50.954;7.116;2023-05-20T22:13:47;11.97;;;8.10;;
5333;SDS011;2689;50.954;7.116;2023-05-20T22:16:15;10.30;;;8.73;;
5333;SDS011;2689;50.954;7.116;2023-05-20T22:18:41;11.13;;;9.23;;
5333;SDS011;2689;50.954;7.116;2023-05-20T22:21:08;12.47;;;10.00;;
5333;SDS011;2689;50.954;7.116;2023-05-20T22:23:36;12.30;;;9.27;;
5333;SDS011;2689;50.954;7.116;2023-05-20T22:26:03;15.20;;;8.97;;
5333;SDS011;2689;50.954;7.116;2023-05-20T22:28:30;14.57;;;9.63;;
5333;SDS011;2689;50.954;7.116;2023-05-20T22:30:56;10.20;;;8.63;;
5333;SDS011;2689;50.954;7.116;2023-05-20T22:33:23;10.90;;;9.10;;
5333;SDS011;2689;50.954;7.116;2023-05-20T22:35:50;10.10;;;8.53;;
5333;SDS011;2689;50.954;7.116;2023-05-20T22:38:18;9.80;;;8.70;;
5333;SDS011;2689;50.954;7.116;2023-05-20T22:40:46;13.20;;;9.13;;
5333;SDS011;2689;50.954;7.116;2023-05-20T22:43:13;11.73;;;9.03;;
5333;SDS011;2689;50.954;7.116;2023-05-20T22:45:40;11.53;;;9.17;;
5333;SDS011;2689;50.954;7.116;2023-05-20T22:48:07;13.97;;;9.27;;
5333;SDS011;2689;50.954;7.116;2023-05-20T22:50:33;12.03;;;9.03;;
5333;SDS011;2689;50.954;7.116;2023-05-20T22:53:00;14.87;;;9.43;;
5333;SDS011;2689;50.954;7.116;2023-05-20T22:55:27;11.30;;;9.03;;
5333;SDS011;2689;50.954;7.116;2023-05-20T22:57:55;10.80;;;8.67;;
5333;SDS011;2689;50.954;7.116;2023-05-20T23:00:22;13.03;;;10.70;;
5333;SDS011;2689;50.954;7.116;2023-05-20T23:02:49;14.20;;;10.23;;
5333;SDS011;2689;50.954;7.116;2023-05-20T23:05:16;12.83;;;9.87;;
5333;SDS011;2689;50.954;7.116;2023-05-20T23:07:43;11.93;;;9.50;;
5333;SDS011;2689;50.954;7.116;2023-05-20T23:10:09;12.90;;;9.50;;
5333;SDS011;2689;50.954;7.116;2023-05-20T23:12:36;13.20;;;10.03;;
5333;SDS011;2689;50.954;7.116;2023-05-20T23:15:05;13.00;;;10.43;;
5333;SDS011;2689;50.954;7.116;2023-05-20T23:17:33;13.63;;;11.70;;
5333;SDS011;2689;50.954;7.116;2023-05-20T23:20:00;12.20;;;10.30;;
5333;SDS011;2689;50.954;7.116;2023-05-20T23:22:29;12.17;;;9.70;;
5333;SDS011;2689;50.954;7.116;2023-05-20T23:24:56;13.13;;;10.37;;
5333;SDS011;2689;50.954;7.116;2023-05-20T23:27:23;11.83;;;10.60;;
5333;SDS011;2689;50.954;7.116;2023-05-20T23:29:50;12.27;;;9.83;;
5333;SDS011;2689;50.954;7.116;2023-05-20T23:32:18;14.20;;;10.30;;
5333;SDS011;2689;50.954;7.116;2023-05-20T23:34:45;11.90;;;10.10;;
5333;SDS011;2689;50.954;7.116;2023-05-20T23:37:11;15.60;;;11.20;;
5333;SDS011;2689;50.954;7.116;2023-05-20T23:39:38;15.03;;;11.00;;
5333;SDS011;2689;50.954;7.116;2023-05-20T23:42:05;13.97;;;10.70;;
5333;SDS011;2689;50.954;7.116;2023-05-20T23:44:32;14.90;;;11.53;;
5333;SDS011;2689;50.954;7.116;2023-05-20T23:46:59;13.67;;;11.63;;
5333;SDS011;2689;50.954;7.116;2023-05-20T23:49:29;13.87;;;10.30;;
5333;SDS011;2689;50.954;7.116;2023-05-20T23:51:56;17.07;;;12.03;;
5333;SDS011;2689;50.954;7.116;2023-05-20T23:54:22;11.97;;;9.53;;
5333;SDS011;2689;50.954;7.116;2023-05-20T23:56:49;14.37;;;10.60;;
5333;SDS011;2689;50.954;7.116;2023-05-20T23:59:16;14.93;;;10.70;;
